EGPI/ILY METAR and TAF weather

Enter ICAO airport designator
Station Type Date Time Source
EGPI METAR 2020/12/05 06:20 UTC NOAA

EGPI 050620Z AUTO 01011KT 210V290 9999 NCD 06/04 Q0995


Station Type Date Time Source
EGPI Decoded METAR 2020/12/05 06:20 UTC NOAA

Islay, United Kingdom (EGPI) 55-40-55N 006-15-24W
Dec 05, 2020 - 01:20 AM EST / 2020.12.05 0620 UTC
Wind: from the N (010 degrees) at 13 MPH (11 KT) (direction variable):0
Visibility: greater than 7 mile(s):0
Temperature: 42 F (6 C)
Dew Point: 39 F (4 C)
Relative Humidity: 86%
Pressure (altimeter): 29.38 in. Hg (0995 hPa)
ob: EGPI 050620Z AUTO 01011KT 210V290 9999 NCD 06/04 Q0995
cycle: 6

Station Type Date Time Source
EGPI TAF UTC NOAA

Error!

Example: see airport list